Time;durP1;ratioP1;P1;durP2;ratioP2;P2;SDS_P1;SDS_P2;PMS_P1;PMS_P2;Temp;Humidity;BMP_temperature;BMP_pressure;BME280_temperature;BME280_humidity;BME280_pressure;Samples;Min_cycle;Max_cycle;Signal;HPM_P1;HPM_P2
2022/01/30 00:01:48;;;;;;;7.88;1.80;;;;;;;;;;4982711;28;20093;-71
2022/01/30 00:04:14;;;;;;;23.35;3.67;;;;;;;;;;4985278;28;20029;-71
2022/01/30 00:06:39;;;;;;;11.82;2.33;;;;;;;;;;4987589;28;20260;-70
2022/01/30 00:09:08;;;;;;;9.40;1.90;;;;;;;;;;4983919;28;20817;-69
2022/01/30 00:11:36;;;;;;;23.13;3.63;;;;;;;;;;4985312;28;20128;-71
2022/01/30 00:14:05;;;;;;;8.98;2.08;;;;;;;;;;4982178;28;20520;-70
2022/01/30 00:16:34;;;;;;;13.23;2.05;;;;;;;;;;4979458;28;20050;-70
2022/01/30 00:19:20;;;;;;;15.63;2.53;;;;;;;;;;4980965;28;20030;-71
2022/01/30 00:21:50;;;;;;;13.00;2.20;;;;;;;;;;4982920;28;20058;-70
2022/01/30 00:24:33;;;;;;;18.58;2.90;;;;;;;;;;4990120;28;20527;-71
2022/01/30 00:26:58;;;;;;;17.20;3.03;;;;;;;;;;4983671;28;20038;-70
2022/01/30 00:29:24;;;;;;;13.52;2.80;;;;;;;;;;4978569;28;20088;-70
2022/01/30 00:31:50;;;;;;;19.40;3.47;;;;;;;;;;4985543;28;20084;-70
2022/01/30 00:34:15;;;;;;;17.88;2.45;;;;;;;;;;4972436;28;20069;-70
2022/01/30 00:36:40;;;;;;;20.40;2.78;;;;;;;;;;5003185;28;20072;-70
2022/01/30 00:39:05;;;;;;;14.75;2.92;;;;;;;;;;4982336;28;20088;-69
2022/01/30 00:41:31;;;;;;;18.83;3.50;;;;;;;;;;4978226;28;20034;-70
2022/01/30 00:43:56;;;;;;;15.15;3.55;;;;;;;;;;4978039;28;20531;-70
2022/01/30 00:46:21;;;;;;;12.65;2.78;;;;;;;;;;4993482;28;20535;-70
2022/01/30 00:48:47;;;;;;;12.05;2.83;;;;;;;;;;4982973;28;20063;-70
2022/01/30 00:51:15;;;;;;;19.30;3.85;;;;;;;;;;4981868;28;20046;-70
2022/01/30 00:53:41;;;;;;;13.93;3.50;;;;;;;;;;4985305;28;20050;-70
2022/01/30 00:56:08;;;;;;;17.70;4.10;;;;;;;;;;4987266;28;20050;-69
2022/01/30 00:58:33;;;;;;;23.52;4.40;;;;;;;;;;4987181;28;20421;-69
2022/01/30 01:00:58;;;;;;;18.73;4.13;;;;;;;;;;4990292;28;20660;-69
2022/01/30 01:03:24;;;;;;;16.58;5.25;;;;;;;;;;4993119;28;20137;-70
2022/01/30 01:05:51;;;;;;;17.40;4.75;;;;;;;;;;4985767;28;20042;-69
2022/01/30 01:08:26;;;;;;;21.15;4.65;;;;;;;;;;4983564;28;20043;-69
2022/01/30 01:10:59;;;;;;;15.65;3.55;;;;;;;;;;4986791;28;20042;-69
2022/01/30 01:24:03;;;;;;;17.50;3.25;;;;;;;;;;4999256;28;20129;-69
2022/01/30 01:26:29;;;;;;;14.98;3.17;;;;;;;;;;5007056;28;20036;-69
2022/01/30 01:28:54;;;;;;;14.65;2.78;;;;;;;;;;5008699;28;20030;-69
2022/01/30 01:31:20;;;;;;;18.00;2.47;;;;;;;;;;5008594;28;20026;-69
2022/01/30 01:36:29;;;;;;;7.38;1.98;;;;;;;;;;5006577;28;20116;-69
2022/01/30 01:38:55;;;;;;;11.15;2.05;;;;;;;;;;5007095;28;20065;-69
2022/01/30 01:41:22;;;;;;;11.63;2.63;;;;;;;;;;5006827;28;20034;-69
2022/01/30 01:43:49;;;;;;;15.55;3.47;;;;;;;;;;5021077;28;20029;-69
2022/01/30 01:46:20;;;;;;;10.38;2.10;;;;;;;;;;5003918;28;20025;-69
2022/01/30 01:48:49;;;;;;;9.43;2.05;;;;;;;;;;5017647;28;20037;-69
2022/01/30 01:51:19;;;;;;;15.90;2.85;;;;;;;;;;4979529;28;20069;-69
2022/01/30 01:53:47;;;;;;;11.80;2.50;;;;;;;;;;5007410;28;20538;-69
2022/01/30 01:56:14;;;;;;;13.75;2.47;;;;;;;;;;5007609;28;20060;-69
2022/01/30 01:58:40;;;;;;;11.38;2.38;;;;;;;;;;4987284;28;20044;-69
2022/01/30 02:01:06;;;;;;;7.78;2.22;;;;;;;;;;5005668;28;20080;-69
2022/01/30 02:03:35;;;;;;;15.13;2.30;;;;;;;;;;5005168;28;20061;-69
2022/01/30 02:06:02;;;;;;;13.48;3.08;;;;;;;;;;5006028;28;20045;-69
2022/01/30 02:08:33;;;;;;;14.77;2.20;;;;;;;;;;5007910;28;20121;-69
2022/01/30 02:26:57;;;;;;;10.35;2.63;;;;;;;;;;5003318;28;20038;-69
2022/01/30 02:29:22;;;;;;;11.02;2.38;;;;;;;;;;5005812;28;20048;-69
2022/01/30 02:31:48;;;;;;;8.15;2.25;;;;;;;;;;5002450;28;20036;-69
2022/01/30 02:34:13;;;;;;;11.90;2.50;;;;;;;;;;5003450;28;20028;-69
2022/01/30 02:36:50;;;;;;;9.65;2.72;;;;;;;;;;5009303;28;20033;-69
2022/01/30 02:39:16;;;;;;;15.95;3.67;;;;;;;;;;5006467;28;20096;-69
2022/01/30 02:41:42;;;;;;;13.30;2.85;;;;;;;;;;5006832;28;20096;-69
2022/01/30 02:44:25;;;;;;;10.52;3.10;;;;;;;;;;4983604;28;20042;-69
2022/01/30 02:46:54;;;;;;;13.40;4.28;;;;;;;;;;4969848;28;20058;-69
2022/01/30 02:51:54;;;;;;;12.68;3.20;;;;;;;;;;4978547;28;20026;-69
2022/01/30 02:54:20;;;;;;;14.90;3.72;;;;;;;;;;4988102;28;20034;-69
2022/01/30 02:56:47;;;;;;;13.10;2.63;;;;;;;;;;4986368;28;20093;-69
2022/01/30 02:59:13;;;;;;;14.05;3.45;;;;;;;;;;4982021;28;20057;-69
2022/01/30 03:01:38;;;;;;;15.77;3.50;;;;;;;;;;4988128;28;20559;-69
2022/01/30 03:04:04;;;;;;;11.40;2.88;;;;;;;;;;4985871;28;20038;-69
2022/01/30 03:06:31;;;;;;;12.15;3.67;;;;;;;;;;4982609;28;20057;-68
2022/01/30 03:08:57;;;;;;;7.63;2.50;;;;;;;;;;4980939;28;20035;-69
2022/01/30 03:11:23;;;;;;;14.95;2.40;;;;;;;;;;4990526;28;20101;-69
2022/01/30 03:13:48;;;;;;;13.60;2.88;;;;;;;;;;4997717;28;20088;-69
2022/01/30 03:16:14;;;;;;;10.55;2.70;;;;;;;;;;4987982;28;20037;-69
2022/01/30 03:18:40;;;;;;;9.07;2.80;;;;;;;;;;4985027;28;20089;-69
2022/01/30 03:21:06;;;;;;;9.93;2.25;;;;;;;;;;4984770;28;20136;-69
2022/01/30 03:23:36;;;;;;;16.15;3.30;;;;;;;;;;4981512;28;20601;-69
2022/01/30 03:26:01;;;;;;;17.02;2.40;;;;;;;;;;4985270;28;20572;-68
2022/01/30 03:28:27;;;;;;;12.25;2.10;;;;;;;;;;4984452;28;20177;-69
2022/01/30 03:30:58;;;;;;;8.57;2.42;;;;;;;;;;4988791;28;20033;-69
2022/01/30 03:33:23;;;;;;;9.68;2.30;;;;;;;;;;4979536;28;20080;-69
2022/01/30 03:35:49;;;;;;;10.13;1.80;;;;;;;;;;4988427;28;20042;-69
2022/01/30 03:38:15;;;;;;;11.70;2.22;;;;;;;;;;4984614;28;20129;-69
2022/01/30 03:40:40;;;;;;;15.57;2.88;;;;;;;;;;4979519;28;20616;-69
2022/01/30 03:43:05;;;;;;;11.18;2.25;;;;;;;;;;4985776;28;20022;-69
2022/01/30 03:45:31;;;;;;;11.70;2.10;;;;;;;;;;4986442;28;20132;-69
2022/01/30 03:47:56;;;;;;;13.68;2.72;;;;;;;;;;4988877;28;20038;-69
2022/01/30 03:50:23;;;;;;;19.02;3.30;;;;;;;;;;4974420;28;20034;-69
2022/01/30 03:52:48;;;;;;;14.45;2.75;;;;;;;;;;4996476;28;20117;-69
2022/01/30 03:55:13;;;;;;;15.23;3.08;;;;;;;;;;4987528;28;20440;-69
2022/01/30 03:57:39;;;;;;;12.90;2.97;;;;;;;;;;4987785;28;20030;-69
2022/01/30 04:00:06;;;;;;;12.52;2.55;;;;;;;;;;4989767;28;20092;-69
2022/01/30 04:02:31;;;;;;;14.90;2.53;;;;;;;;;;5000368;28;20124;-69
2022/01/30 04:04:56;;;;;;;15.48;3.72;;;;;;;;;;5002462;28;20195;-69
2022/01/30 04:07:23;;;;;;;13.30;3.17;;;;;;;;;;5003967;28;20128;-69
2022/01/30 04:09:49;;;;;;;18.17;3.10;;;;;;;;;;4983586;28;20038;-69
2022/01/30 04:12:14;;;;;;;11.95;3.42;;;;;;;;;;4985053;28;20045;-69
2022/01/30 04:14:40;;;;;;;13.98;2.47;;;;;;;;;;4987897;28;20066;-69
2022/01/30 04:17:08;;;;;;;13.45;3.40;;;;;;;;;;4987271;28;20049;-69
2022/01/30 04:19:34;;;;;;;13.93;2.80;;;;;;;;;;4986958;28;20112;-69
2022/01/30 04:21:59;;;;;;;14.43;2.70;;;;;;;;;;4983790;28;20425;-69
2022/01/30 04:24:24;;;;;;;9.25;3.30;;;;;;;;;;4988375;28;20049;-69
2022/01/30 04:26:50;;;;;;;9.65;2.50;;;;;;;;;;4987006;28;20047;-69
2022/01/30 04:29:15;;;;;;;14.45;2.42;;;;;;;;;;4994879;28;20042;-69
2022/01/30 04:31:42;;;;;;;11.88;2.65;;;;;;;;;;5001579;28;20041;-69
2022/01/30 04:34:08;;;;;;;10.95;2.25;;;;;;;;;;5002903;28;20139;-68
2022/01/30 04:36:39;;;;;;;7.00;2.05;;;;;;;;;;5004743;28;20025;-69
2022/01/30 04:42:00;;;;;;;8.65;2.95;;;;;;;;;;4988208;28;20523;-69
2022/01/30 05:08:16;;;;;;;8.23;2.40;;;;;;;;;;5007166;28;20042;-69
2022/01/30 05:10:42;;;;;;;6.63;2.30;;;;;;;;;;4986719;28;20038;-69
2022/01/30 05:13:11;;;;;;;14.40;2.42;;;;;;;;;;5006377;28;20034;-68
2022/01/30 05:15:37;;;;;;;6.80;2.03;;;;;;;;;;5007593;28;20038;-69
2022/01/30 05:18:02;;;;;;;12.90;2.45;;;;;;;;;;5001544;28;20420;-69
2022/01/30 05:20:29;;;;;;;12.77;2.42;;;;;;;;;;5003862;28;20120;-69
2022/01/30 05:22:56;;;;;;;7.95;2.17;;;;;;;;;;5000267;28;20412;-69
2022/01/30 05:25:21;;;;;;;6.47;2.00;;;;;;;;;;5004686;28;20087;-69
2022/01/30 05:27:47;;;;;;;9.55;2.58;;;;;;;;;;5003507;28;20029;-69
2022/01/30 05:30:13;;;;;;;12.63;2.42;;;;;;;;;;4987528;28;20033;-69
2022/01/30 05:32:38;;;;;;;16.65;4.95;;;;;;;;;;5003681;28;20084;-69
2022/01/30 05:35:04;;;;;;;14.32;3.47;;;;;;;;;;5010722;28;20049;-69
2022/01/30 05:37:30;;;;;;;11.05;2.97;;;;;;;;;;5008848;28;20045;-69
2022/01/30 05:39:55;;;;;;;12.32;2.58;;;;;;;;;;5006180;28;20044;-68
2022/01/30 05:42:23;;;;;;;11.48;2.53;;;;;;;;;;5007129;28;20053;-69
2022/01/30 05:47:28;;;;;;;9.95;1.95;;;;;;;;;;5007933;28;20042;-69
2022/01/30 05:49:54;;;;;;;7.05;2.63;;;;;;;;;;5010548;28;20049;-69
2022/01/30 05:52:21;;;;;;;11.27;2.45;;;;;;;;;;5008210;28;20037;-69
2022/01/30 05:54:47;;;;;;;8.68;2.92;;;;;;;;;;5005453;28;20699;-69
2022/01/30 05:57:12;;;;;;;13.20;2.97;;;;;;;;;;5005469;28;20037;-68
2022/01/30 05:59:38;;;;;;;12.80;3.33;;;;;;;;;;5007514;28;20135;-69
2022/01/30 06:02:03;;;;;;;12.30;2.85;;;;;;;;;;5010632;28;20038;-69
2022/01/30 06:04:29;;;;;;;9.88;2.72;;;;;;;;;;5009702;28;20112;-69
2022/01/30 06:06:55;;;;;;;9.80;2.55;;;;;;;;;;5010684;28;20114;-69
2022/01/30 06:09:21;;;;;;;8.30;2.72;;;;;;;;;;4991293;28;20050;-69
2022/01/30 06:11:47;;;;;;;11.95;3.42;;;;;;;;;;5003493;28;20268;-68
2022/01/30 06:14:14;;;;;;;16.20;4.35;;;;;;;;;;5011067;28;20125;-69
2022/01/30 06:16:39;;;;;;;12.98;4.28;;;;;;;;;;5009844;28;20073;-69
2022/01/30 06:19:04;;;;;;;13.48;4.70;;;;;;;;;;5005366;28;20045;-69
2022/01/30 06:21:29;;;;;;;12.25;3.45;;;;;;;;;;4990705;28;20423;-69
2022/01/30 06:23:55;;;;;;;13.95;3.85;;;;;;;;;;5006223;28;20508;-69
2022/01/30 06:26:21;;;;;;;10.60;3.75;;;;;;;;;;5010536;28;20118;-69
2022/01/30 06:28:46;;;;;;;12.70;3.95;;;;;;;;;;5004801;28;20049;-69
2022/01/30 06:31:11;;;;;;;11.38;3.88;;;;;;;;;;5002081;28;20412;-69
2022/01/30 06:33:37;;;;;;;13.85;3.78;;;;;;;;;;5006690;28;20393;-69
2022/01/30 06:36:02;;;;;;;12.85;4.32;;;;;;;;;;5009393;28;20050;-69
2022/01/30 06:38:27;;;;;;;19.05;5.00;;;;;;;;;;5007548;28;20137;-69
2022/01/30 06:40:53;;;;;;;19.42;4.63;;;;;;;;;;5005522;28;20526;-69
2022/01/30 06:43:18;;;;;;;12.55;4.38;;;;;;;;;;5005492;28;20037;-69
2022/01/30 06:45:43;;;;;;;19.67;5.63;;;;;;;;;;5003267;28;20455;-69
2022/01/30 06:48:09;;;;;;;19.00;5.47;;;;;;;;;;5005874;28;20065;-69
2022/01/30 06:50:35;;;;;;;14.90;5.47;;;;;;;;;;5009759;28;20049;-69
2022/01/30 06:53:00;;;;;;;18.85;5.47;;;;;;;;;;4991105;28;20034;-69
2022/01/30 06:55:25;;;;;;;10.85;5.05;;;;;;;;;;5009742;28;20029;-69
2022/01/30 06:57:51;;;;;;;18.00;5.10;;;;;;;;;;5006613;28;20487;-69
2022/01/30 07:00:17;;;;;;;19.92;5.63;;;;;;;;;;5002976;28;20042;-69
2022/01/30 07:02:42;;;;;;;21.75;5.20;;;;;;;;;;5005454;28;20616;-69
2022/01/30 07:05:08;;;;;;;12.50;4.72;;;;;;;;;;5003066;28;20041;-69
2022/01/30 07:07:33;;;;;;;21.42;5.40;;;;;;;;;;5006518;28;20038;-69
2022/01/30 07:09:58;;;;;;;9.57;4.20;;;;;;;;;;5007143;28;20088;-69
2022/01/30 07:12:24;;;;;;;13.25;4.30;;;;;;;;;;5007832;28;20758;-69
2022/01/30 07:14:49;;;;;;;11.23;4.03;;;;;;;;;;5006077;28;20030;-69
2022/01/30 07:17:14;;;;;;;16.33;5.22;;;;;;;;;;5003774;28;20468;-69
2022/01/30 07:19:40;;;;;;;12.00;4.47;;;;;;;;;;4989998;28;20111;-69
2022/01/30 07:22:05;;;;;;;13.23;5.00;;;;;;;;;;5004180;28;20037;-69
2022/01/30 07:24:31;;;;;;;16.05;4.97;;;;;;;;;;4986732;28;20492;-69
2022/01/30 07:26:56;;;;;;;20.77;5.20;;;;;;;;;;5007921;28;20558;-69
2022/01/30 07:29:22;;;;;;;17.67;5.50;;;;;;;;;;5006839;28;20042;-69
2022/01/30 07:31:47;;;;;;;14.30;6.43;;;;;;;;;;5005026;28;20045;-69
2022/01/30 07:34:12;;;;;;;18.15;6.18;;;;;;;;;;4987285;28;20030;-68
2022/01/30 07:36:39;;;;;;;15.80;5.57;;;;;;;;;;5003424;28;20594;-69
2022/01/30 07:39:09;;;;;;;12.52;5.50;;;;;;;;;;5005918;28;20044;-69
2022/01/30 07:41:35;;;;;;;18.33;6.57;;;;;;;;;;5005529;28;20057;-69
2022/01/30 07:44:02;;;;;;;12.57;5.40;;;;;;;;;;5007918;28;20057;-69
2022/01/30 07:46:28;;;;;;;15.15;5.82;;;;;;;;;;5007938;28;20117;-69
2022/01/30 07:48:54;;;;;;;15.93;5.00;;;;;;;;;;5005271;28;20091;-69
2022/01/30 07:51:19;;;;;;;17.70;4.70;;;;;;;;;;5003098;28;20046;-68
2022/01/30 07:53:45;;;;;;;10.98;4.85;;;;;;;;;;5004372;28;20046;-69
2022/01/30 07:56:12;;;;;;;16.00;5.28;;;;;;;;;;5005164;28;20042;-69
2022/01/30 07:58:37;;;;;;;11.50;4.63;;;;;;;;;;5003205;28;20121;-68
2022/01/30 08:01:02;;;;;;;17.85;5.20;;;;;;;;;;5006262;28;20105;-69
2022/01/30 08:03:28;;;;;;;14.65;4.65;;;;;;;;;;5002010;28;20038;-69
2022/01/30 08:05:53;;;;;;;16.38;5.50;;;;;;;;;;5003475;28;20034;-69
2022/01/30 08:08:18;;;;;;;25.15;6.22;;;;;;;;;;5006473;28;20050;-69
2022/01/30 08:10:44;;;;;;;20.52;5.05;;;;;;;;;;5007175;28;20034;-69
2022/01/30 08:13:09;;;;;;;14.82;4.60;;;;;;;;;;5007924;28;20033;-69
2022/01/30 08:15:34;;;;;;;12.43;5.70;;;;;;;;;;5009434;28;20084;-69
2022/01/30 08:18:00;;;;;;;15.40;4.90;;;;;;;;;;5005219;28;20120;-69
2022/01/30 08:20:27;;;;;;;12.82;5.57;;;;;;;;;;5008171;28;20041;-69
2022/01/30 08:22:54;;;;;;;11.43;5.70;;;;;;;;;;5005814;28;20180;-69
2022/01/30 08:25:21;;;;;;;12.32;5.32;;;;;;;;;;5004577;28;20037;-69
2022/01/30 08:27:47;;;;;;;20.80;6.90;;;;;;;;;;4994179;28;20024;-70
2022/01/30 08:30:14;;;;;;;17.75;5.65;;;;;;;;;;5007263;28;20037;-69
2022/01/30 08:32:45;;;;;;;17.95;7.00;;;;;;;;;;5002003;28;20589;-69
2022/01/30 08:35:13;;;;;;;16.88;6.53;;;;;;;;;;5006188;28;20048;-68
2022/01/30 08:37:38;;;;;;;16.52;6.43;;;;;;;;;;5000318;28;20728;-67
2022/01/30 08:40:08;;;;;;;19.60;7.75;;;;;;;;;;4988412;28;20040;-67
2022/01/30 08:42:34;;;;;;;24.60;9.02;;;;;;;;;;4999551;28;20053;-67
2022/01/30 08:44:59;;;;;;;22.95;8.52;;;;;;;;;;5004610;28;20038;-67
2022/01/30 08:47:25;;;;;;;27.58;9.50;;;;;;;;;;5005555;28;20519;-68
2022/01/30 08:49:50;;;;;;;20.23;8.02;;;;;;;;;;5006186;28;20041;-67
2022/01/30 08:52:19;;;;;;;18.75;6.50;;;;;;;;;;5006770;28;20022;-67
2022/01/30 08:54:45;;;;;;;21.00;5.20;;;;;;;;;;5003349;28;20112;-67
2022/01/30 08:57:10;;;;;;;14.60;4.60;;;;;;;;;;5002199;28;20096;-67
2022/01/30 08:59:35;;;;;;;16.38;4.53;;;;;;;;;;5002500;28;20485;-68
2022/01/30 09:02:01;;;;;;;11.43;3.95;;;;;;;;;;4981136;28;20088;-71
2022/01/30 09:04:26;;;;;;;22.77;4.80;;;;;;;;;;4983369;28;20572;-71
2022/01/30 09:06:51;;;;;;;15.55;4.90;;;;;;;;;;4981714;28;20069;-71
2022/01/30 09:09:17;;;;;;;22.02;5.28;;;;;;;;;;4990329;28;20042;-70
2022/01/30 09:11:42;;;;;;;16.80;4.47;;;;;;;;;;4985011;28;20038;-71
2022/01/30 09:14:08;;;;;;;16.75;5.55;;;;;;;;;;4987274;28;20084;-71
2022/01/30 09:16:33;;;;;;;14.98;4.72;;;;;;;;;;4990838;28;20082;-71
2022/01/30 09:18:59;;;;;;;19.73;4.90;;;;;;;;;;4987189;28;20113;-70
2022/01/30 09:21:24;;;;;;;22.08;6.38;;;;;;;;;;4985135;28;20034;-71
2022/01/30 09:23:50;;;;;;;15.50;5.40;;;;;;;;;;4987069;28;20043;-70
2022/01/30 09:26:15;;;;;;;23.77;5.35;;;;;;;;;;4981510;28;20033;-71
2022/01/30 09:28:40;;;;;;;27.13;6.22;;;;;;;;;;4985575;28;20042;-71
2022/01/30 09:31:06;;;;;;;19.85;7.07;;;;;;;;;;4986145;28;20027;-71
2022/01/30 09:33:31;;;;;;;27.73;8.48;;;;;;;;;;4988758;28;20038;-71
2022/01/30 09:35:56;;;;;;;29.85;9.20;;;;;;;;;;4985250;28;20043;-71
2022/01/30 09:38:23;;;;;;;24.08;8.80;;;;;;;;;;4987215;28;20042;-70
2022/01/30 09:40:53;;;;;;;30.42;9.38;;;;;;;;;;4980988;28;20042;-70
2022/01/30 09:43:19;;;;;;;24.42;7.28;;;;;;;;;;4991278;28;20437;-71
2022/01/30 09:45:45;;;;;;;27.75;7.28;;;;;;;;;;5002973;28;20017;-71
2022/01/30 09:48:12;;;;;;;22.45;7.38;;;;;;;;;;4984398;28;20550;-72
2022/01/30 09:50:40;;;;;;;26.63;8.25;;;;;;;;;;4988673;28;20038;-72
2022/01/30 09:53:06;;;;;;;32.25;8.35;;;;;;;;;;4988290;28;20038;-71
2022/01/30 09:55:31;;;;;;;21.00;7.82;;;;;;;;;;4981383;28;20034;-72
2022/01/30 09:57:57;;;;;;;19.45;6.68;;;;;;;;;;4987739;28;20034;-72
2022/01/30 10:00:22;;;;;;;27.15;6.65;;;;;;;;;;4990916;28;20042;-72
2022/01/30 10:02:47;;;;;;;30.70;7.00;;;;;;;;;;4982079;28;20042;-71
2022/01/30 10:05:15;;;;;;;22.30;6.53;;;;;;;;;;4986829;28;20058;-71
2022/01/30 10:07:48;;;;;;;27.85;6.15;;;;;;;;;;4987469;28;20050;-71
2022/01/30 10:10:19;;;;;;;20.33;5.65;;;;;;;;;;4986312;28;20088;-71
2022/01/30 10:13:04;;;;;;;18.60;5.63;;;;;;;;;;4998375;28;20119;-71
2022/01/30 10:15:31;;;;;;;16.23;5.65;;;;;;;;;;4984670;28;20100;-71
2022/01/30 10:17:57;;;;;;;20.90;6.05;;;;;;;;;;4986791;28;20072;-71
2022/01/30 10:20:26;;;;;;;21.08;6.03;;;;;;;;;;4982524;28;20034;-71
2022/01/30 10:22:56;;;;;;;18.45;5.60;;;;;;;;;;4985588;28;20042;-72
2022/01/30 10:25:24;;;;;;;19.35;5.82;;;;;;;;;;4979780;28;20030;-71
2022/01/30 10:28:10;;;;;;;24.27;5.68;;;;;;;;;;4986106;28;20069;-71
2022/01/30 10:30:50;;;;;;;20.73;5.78;;;;;;;;;;4987167;28;20061;-71
2022/01/30 10:33:20;;;;;;;17.60;4.65;;;;;;;;;;4988381;28;20646;-71
2022/01/30 10:35:57;;;;;;;15.27;4.63;;;;;;;;;;4996852;28;20039;-72
2022/01/30 10:38:27;;;;;;;20.80;4.70;;;;;;;;;;4989038;28;20048;-71
2022/01/30 10:40:59;;;;;;;13.23;4.18;;;;;;;;;;4987739;28;20042;-72
2022/01/30 10:43:55;;;;;;;16.13;4.82;;;;;;;;;;4985206;28;20038;-71
2022/01/30 10:46:29;;;;;;;17.08;4.38;;;;;;;;;;4985352;28;20033;-71
2022/01/30 10:49:21;;;;;;;14.60;3.80;;;;;;;;;;4986489;28;20122;-71
2022/01/30 10:52:01;;;;;;;13.35;3.97;;;;;;;;;;4985080;28;20085;-71
2022/01/30 10:54:34;;;;;;;15.85;4.40;;;;;;;;;;4990050;28;20038;-71
2022/01/30 10:57:04;;;;;;;24.77;4.77;;;;;;;;;;4988377;28;20081;-71
2022/01/30 10:59:29;;;;;;;20.58;5.13;;;;;;;;;;4986678;28;20038;-71
2022/01/30 11:02:09;;;;;;;17.10;4.00;;;;;;;;;;4986004;28;20108;-72
2022/01/30 11:04:35;;;;;;;14.57;3.53;;;;;;;;;;4990378;28;20037;-72
2022/01/30 11:07:03;;;;;;;13.20;4.47;;;;;;;;;;4992905;28;20043;-71
2022/01/30 11:09:34;;;;;;;17.17;4.47;;;;;;;;;;4988829;28;20042;-72
2022/01/30 11:12:06;;;;;;;16.30;4.03;;;;;;;;;;4987490;28;20037;-71
2022/01/30 11:14:39;;;;;;;13.18;3.38;;;;;;;;;;4985386;28;20038;-71
2022/01/30 11:17:07;;;;;;;13.70;3.45;;;;;;;;;;4986224;28;20467;-71
2022/01/30 11:19:41;;;;;;;20.25;3.50;;;;;;;;;;4982902;28;20045;-71
2022/01/30 11:22:10;;;;;;;17.08;3.08;;;;;;;;;;4987898;28;20500;-71
2022/01/30 11:24:44;;;;;;;18.25;3.67;;;;;;;;;;4987617;28;20047;-72
2022/01/30 11:27:10;;;;;;;11.00;2.95;;;;;;;;;;4988617;28;20109;-71
2022/01/30 11:29:37;;;;;;;13.85;3.60;;;;;;;;;;4987625;28;20054;-71
2022/01/30 11:32:05;;;;;;;11.32;3.10;;;;;;;;;;4984349;28;20618;-71
2022/01/30 11:34:32;;;;;;;14.32;2.90;;;;;;;;;;4983582;28;20549;-71
2022/01/30 11:36:58;;;;;;;9.70;2.45;;;;;;;;;;4977921;28;20038;-71
2022/01/30 11:39:24;;;;;;;13.73;3.13;;;;;;;;;;4985513;28;20034;-70
2022/01/30 11:42:09;;;;;;;12.32;2.90;;;;;;;;;;4985234;28;20551;-71
2022/01/30 11:44:35;;;;;;;12.18;2.20;;;;;;;;;;4984312;28;20042;-72
2022/01/30 11:47:03;;;;;;;11.55;2.33;;;;;;;;;;4985865;28;20672;-71
2022/01/30 11:49:40;;;;;;;18.50;3.10;;;;;;;;;;4987889;28;20038;-71
2022/01/30 11:52:09;;;;;;;13.27;2.17;;;;;;;;;;4989381;28;20103;-71
2022/01/30 11:54:47;;;;;;;16.33;3.38;;;;;;;;;;4988897;28;20519;-71
2022/01/30 11:57:18;;;;;;;12.50;2.97;;;;;;;;;;4983989;28;20728;-72
2022/01/30 11:59:45;;;;;;;11.43;2.75;;;;;;;;;;4997752;28;20042;-71
2022/01/30 12:02:35;;;;;;;17.80;3.25;;;;;;;;;;4989294;28;20042;-71
2022/01/30 12:05:04;;;;;;;12.23;2.60;;;;;;;;;;5000153;28;20132;-71
2022/01/30 12:07:41;;;;;;;10.63;2.03;;;;;;;;;;4998314;28;20187;-72
2022/01/30 12:10:15;;;;;;;17.05;2.70;;;;;;;;;;4988462;28;20038;-72
2022/01/30 12:12:58;;;;;;;13.57;2.58;;;;;;;;;;4986116;28;20054;-71
2022/01/30 12:15:43;;;;;;;9.20;2.10;;;;;;;;;;5001478;28;20533;-71
2022/01/30 12:18:13;;;;;;;17.52;3.10;;;;;;;;;;5004925;28;20048;-71
2022/01/30 12:20:59;;;;;;;9.50;2.28;;;;;;;;;;5006128;28;20037;-71
2022/01/30 12:23:26;;;;;;;12.68;2.00;;;;;;;;;;4998855;28;20093;-71
2022/01/30 12:26:04;;;;;;;13.93;3.05;;;;;;;;;;4984681;28;20034;-71
2022/01/30 12:28:53;;;;;;;13.20;2.60;;;;;;;;;;4999452;28;20042;-71
2022/01/30 12:31:29;;;;;;;11.25;2.92;;;;;;;;;;4985064;28;20567;-71
2022/01/30 12:33:59;;;;;;;9.63;2.10;;;;;;;;;;4985454;28;20033;-72
2022/01/30 12:36:25;;;;;;;15.25;2.65;;;;;;;;;;4987606;28;20034;-72
2022/01/30 12:39:11;;;;;;;14.02;2.80;;;;;;;;;;4997022;28;20057;-71
2022/01/30 12:41:39;;;;;;;12.90;2.80;;;;;;;;;;4980706;28;20656;-71
2022/01/30 12:44:09;;;;;;;10.75;2.08;;;;;;;;;;4984815;28;20026;-71
2022/01/30 12:46:49;;;;;;;8.93;1.75;;;;;;;;;;4989808;28;20108;-72
2022/01/30 12:49:29;;;;;;;7.72;2.10;;;;;;;;;;4987883;28;20544;-71
2022/01/30 12:51:57;;;;;;;9.45;1.98;;;;;;;;;;4987042;28;20030;-71
2022/01/30 12:54:29;;;;;;;13.57;2.25;;;;;;;;;;4983834;28;20121;-71
2022/01/30 12:56:56;;;;;;;10.18;1.85;;;;;;;;;;4984910;28;20030;-72
2022/01/30 12:59:24;;;;;;;8.02;1.95;;;;;;;;;;4983499;28;20070;-71
2022/01/30 13:01:50;;;;;;;8.73;1.98;;;;;;;;;;4987814;28;20034;-72
2022/01/30 13:04:35;;;;;;;14.45;2.03;;;;;;;;;;4986653;28;20547;-71
2022/01/30 13:07:01;;;;;;;12.25;2.40;;;;;;;;;;4988422;28;20060;-72
2022/01/30 13:09:28;;;;;;;7.43;1.88;;;;;;;;;;4966912;28;20944;-72
2022/01/30 13:11:56;;;;;;;15.93;2.63;;;;;;;;;;4984632;28;20038;-71
2022/01/30 13:14:30;;;;;;;11.25;2.47;;;;;;;;;;4983637;28;20125;-71
2022/01/30 13:16:56;;;;;;;6.97;2.20;;;;;;;;;;4988028;28;20038;-72
2022/01/30 13:19:42;;;;;;;9.15;2.67;;;;;;;;;;4986883;28;20468;-72
2022/01/30 13:22:29;;;;;;;12.10;2.55;;;;;;;;;;4983975;28;20034;-71
2022/01/30 13:24:56;;;;;;;16.05;2.67;;;;;;;;;;4984117;28;20518;-71
2022/01/30 13:27:21;;;;;;;15.13;2.25;;;;;;;;;;4983084;28;20033;-71
2022/01/30 13:29:47;;;;;;;17.40;3.05;;;;;;;;;;4984402;28;20042;-72
2022/01/30 13:32:12;;;;;;;8.52;2.10;;;;;;;;;;4980372;28;20065;-71
2022/01/30 13:34:40;;;;;;;11.15;2.72;;;;;;;;;;4986690;28;20035;-72
2022/01/30 13:37:11;;;;;;;12.80;2.47;;;;;;;;;;4991833;28;20531;-72
2022/01/30 13:40:05;;;;;;;9.35;2.58;;;;;;;;;;5001651;28;21253;-72
2022/01/30 13:47:58;;;;;;;15.52;3.05;;;;;;;;;;4981556;28;20039;-71
2022/01/30 13:50:26;;;;;;;10.05;2.63;;;;;;;;;;4981368;28;20419;-72
2022/01/30 13:53:06;;;;;;;12.75;2.58;;;;;;;;;;4985013;28;20496;-72
2022/01/30 13:55:34;;;;;;;8.85;2.20;;;;;;;;;;4985235;28;20039;-71
2022/01/30 13:58:00;;;;;;;12.60;2.05;;;;;;;;;;4988980;28;20042;-72
2022/01/30 14:00:36;;;;;;;13.55;2.55;;;;;;;;;;4985072;28;20049;-71
2022/01/30 14:03:04;;;;;;;11.25;3.03;;;;;;;;;;4988334;28;20038;-71
2022/01/30 14:05:40;;;;;;;14.00;3.38;;;;;;;;;;4985361;28;20145;-71
2022/01/30 14:08:14;;;;;;;13.40;2.88;;;;;;;;;;4989842;28;20050;-72
2022/01/30 14:10:40;;;;;;;16.45;2.75;;;;;;;;;;4990439;28;20534;-72
2022/01/30 14:13:18;;;;;;;8.57;2.13;;;;;;;;;;4991920;28;20030;-72
2022/01/30 14:15:44;;;;;;;10.38;2.58;;;;;;;;;;4987473;28;20050;-72
2022/01/30 14:18:15;;;;;;;10.02;2.50;;;;;;;;;;4986530;28;20126;-71
2022/01/30 14:20:46;;;;;;;21.95;4.00;;;;;;;;;;4983112;28;20051;-72
2022/01/30 14:23:15;;;;;;;21.27;3.55;;;;;;;;;;4988216;28;20049;-72
2022/01/30 14:25:42;;;;;;;13.38;2.40;;;;;;;;;;4989144;28;20038;-72
2022/01/30 14:28:23;;;;;;;9.05;2.50;;;;;;;;;;4969631;28;20077;-71
2022/01/30 14:30:50;;;;;;;9.68;2.85;;;;;;;;;;4988242;28;20062;-71
2022/01/30 14:33:15;;;;;;;8.13;2.53;;;;;;;;;;4985793;28;20045;-71
2022/01/30 14:35:42;;;;;;;13.55;2.72;;;;;;;;;;4991138;28;20038;-72
2022/01/30 14:38:09;;;;;;;11.20;3.20;;;;;;;;;;4987441;28;20065;-72
2022/01/30 14:40:37;;;;;;;8.55;2.13;;;;;;;;;;4974685;28;20038;-72
2022/01/30 14:43:08;;;;;;;10.05;2.05;;;;;;;;;;5009114;28;20484;-72
2022/01/30 14:45:34;;;;;;;14.38;2.03;;;;;;;;;;4986010;28;20065;-71
2022/01/30 14:48:00;;;;;;;8.18;2.17;;;;;;;;;;4973834;28;20512;-71
2022/01/30 14:50:26;;;;;;;10.85;3.00;;;;;;;;;;4983937;28;20039;-71
2022/01/30 14:52:52;;;;;;;12.52;3.22;;;;;;;;;;4983584;28;20047;-71
2022/01/30 14:55:19;;;;;;;9.18;2.38;;;;;;;;;;4986794;28;20034;-71
2022/01/30 14:57:45;;;;;;;9.40;2.38;;;;;;;;;;4987067;28;20062;-72
2022/01/30 15:00:14;;;;;;;9.05;3.00;;;;;;;;;;4987923;28;20049;-72
2022/01/30 15:02:40;;;;;;;17.23;2.40;;;;;;;;;;4998802;28;20046;-71
2022/01/30 15:05:06;;;;;;;11.05;2.33;;;;;;;;;;4990756;28;20066;-71
2022/01/30 15:07:31;;;;;;;14.25;3.10;;;;;;;;;;4988861;28;20053;-72
2022/01/30 15:09:57;;;;;;;5.25;2.20;;;;;;;;;;4987227;28;20077;-71
2022/01/30 15:12:22;;;;;;;12.77;2.83;;;;;;;;;;4966791;28;20046;-71
2022/01/30 15:14:51;;;;;;;9.45;2.72;;;;;;;;;;4991820;28;20076;-71
2022/01/30 15:17:21;;;;;;;8.30;2.30;;;;;;;;;;4989938;28;20050;-72
2022/01/30 15:19:46;;;;;;;20.83;2.97;;;;;;;;;;4992565;28;20613;-71
2022/01/30 15:22:13;;;;;;;14.18;2.72;;;;;;;;;;4981019;28;20025;-71
2022/01/30 15:24:38;;;;;;;15.70;3.03;;;;;;;;;;4984550;28;20113;-71
2022/01/30 15:27:04;;;;;;;13.85;3.08;;;;;;;;;;4979322;28;20463;-71
2022/01/30 15:29:29;;;;;;;11.55;2.50;;;;;;;;;;4984617;28;20061;-72
2022/01/30 15:31:54;;;;;;;11.88;2.78;;;;;;;;;;4973124;28;20492;-72
2022/01/30 15:34:20;;;;;;;7.78;2.70;;;;;;;;;;4988366;28;20030;-71
2022/01/30 15:36:45;;;;;;;8.18;2.25;;;;;;;;;;4975637;28;20026;-71
2022/01/30 15:39:10;;;;;;;10.18;2.40;;;;;;;;;;4986421;28;20054;-72
2022/01/30 15:41:36;;;;;;;9.90;2.50;;;;;;;;;;4981662;28;20065;-71
2022/01/30 15:44:04;;;;;;;18.02;3.25;;;;;;;;;;4994670;28;20038;-72